sensor_id;sensor_type;location;lat;lon;timestamp;pressure;altitude;pressure_sealevel;temperature;humidity
67840;BME280;54636;51.684;5.142;2023-04-23T00:00:06;100783.09;;;7.07;100.00
67840;BME280;54636;51.684;5.142;2023-04-23T00:02:32;100791.19;;;7.07;100.00
67840;BME280;54636;51.684;5.142;2023-04-23T00:05:03;100788.50;;;7.07;100.00
67840;BME280;54636;51.684;5.142;2023-04-23T00:07:31;100784.28;;;7.06;100.00
67840;BME280;54636;51.684;5.142;2023-04-23T00:09:58;100776.19;;;7.06;100.00
67840;BME280;54636;51.684;5.142;2023-04-23T00:12:24;100768.09;;;7.06;100.00
67840;BME280;54636;51.684;5.142;2023-04-23T00:14:50;100766.31;;;7.03;100.00
67840;BME280;54636;51.684;5.142;2023-04-23T00:17:15;100761.31;;;7.10;100.00
67840;BME280;54636;51.684;5.142;2023-04-23T00:19:41;100761.31;;;7.10;100.00
67840;BME280;54636;51.684;5.142;2023-04-23T00:22:06;100759.25;;;7.05;100.00
67840;BME280;54636;51.684;5.142;2023-04-23T00:24:32;100763.31;;;7.01;100.00
67840;BME280;54636;51.684;5.142;2023-04-23T00:27:00;100766.63;;;6.96;100.00
67840;BME280;54636;51.684;5.142;2023-04-23T00:29:26;100758.22;;;6.93;100.00
67840;BME280;54636;51.684;5.142;2023-04-23T00:31:51;100756.72;;;6.92;100.00
67840;BME280;54636;51.684;5.142;2023-04-23T00:34:17;100763.03;;;6.89;100.00
67840;BME280;54636;51.684;5.142;2023-04-23T00:36:42;100760.50;;;6.86;100.00
67840;BME280;54636;51.684;5.142;2023-04-23T00:39:07;100753.19;;;6.77;100.00
67840;BME280;54636;51.684;5.142;2023-04-23T00:41:34;100750.31;;;6.81;100.00
67840;BME280;54636;51.684;5.142;2023-04-23T00:43:59;100739.41;;;6.75;100.00
67840;BME280;54636;51.684;5.142;2023-04-23T00:46:25;100744.78;;;6.75;100.00
67840;BME280;54636;51.684;5.142;2023-04-23T00:48:51;100745.53;;;6.76;100.00
67840;BME280;54636;51.684;5.142;2023-04-23T00:51:17;100733.88;;;6.70;100.00
67840;BME280;54636;51.684;5.142;2023-04-23T00:53:42;100729.97;;;6.71;100.00
67840;BME280;54636;51.684;5.142;2023-04-23T00:56:08;100733.28;;;6.66;100.00
67840;BME280;54636;51.684;5.142;2023-04-23T00:58:35;100732.94;;;6.73;100.00
67840;BME280;54636;51.684;5.142;2023-04-23T01:01:00;100734.28;;;6.77;100.00
67840;BME280;54636;51.684;5.142;2023-04-23T01:03:28;100730.97;;;6.82;100.00
67840;BME280;54636;51.684;5.142;2023-04-23T01:05:55;100721.22;;;6.85;100.00
67840;BME280;54636;51.684;5.142;2023-04-23T01:08:22;100716.22;;;6.92;100.00
67840;BME280;54636;51.684;5.142;2023-04-23T01:10:49;100706.06;;;6.87;100.00
67840;BME280;54636;51.684;5.142;2023-04-23T01:13:15;100713.25;;;6.90;100.00
67840;BME280;54636;51.684;5.142;2023-04-23T01:15:44;100725.66;;;6.97;100.00
67840;BME280;54636;51.684;5.142;2023-04-23T01:18:10;100720.25;;;6.97;100.00
67840;BME280;54636;51.684;5.142;2023-04-23T01:20:36;100704.97;;;6.94;100.00
67840;BME280;54636;51.684;5.142;2023-04-23T01:23:03;100711.72;;;6.99;100.00
67840;BME280;54636;51.684;5.142;2023-04-23T01:25:29;100707.22;;;6.96;100.00
67840;BME280;54636;51.684;5.142;2023-04-23T01:27:55;100713.03;;;7.03;100.00
67840;BME280;54636;51.684;5.142;2023-04-23T01:30:22;100703.56;;;7.08;100.00
67840;BME280;54636;51.684;5.142;2023-04-23T01:32:48;100709.53;;;7.12;100.00
67840;BME280;54636;51.684;5.142;2023-04-23T01:35:14;100707.41;;;7.16;100.00
67840;BME280;54636;51.684;5.142;2023-04-23T01:37:40;100706.78;;;7.21;100.00
67840;BME280;54636;51.684;5.142;2023-04-23T01:40:07;100696.59;;;7.16;100.00
67840;BME280;54636;51.684;5.142;2023-04-23T01:42:33;100702.97;;;7.27;100.00
67840;BME280;54636;51.684;5.142;2023-04-23T01:45:01;100701.31;;;7.30;100.00
67840;BME280;54636;51.684;5.142;2023-04-23T01:47:26;100698.59;;;7.30;100.00
67840;BME280;54636;51.684;5.142;2023-04-23T01:49:52;100698.72;;;7.36;100.00
67840;BME280;54636;51.684;5.142;2023-04-23T01:52:18;100704.72;;;7.40;100.00
67840;BME280;54636;51.684;5.142;2023-04-23T01:54:43;100691.09;;;7.34;100.00
67840;BME280;54636;51.684;5.142;2023-04-23T01:57:09;100709.75;;;7.47;100.00
67840;BME280;54636;51.684;5.142;2023-04-23T01:59:36;100710.34;;;7.51;100.00
67840;BME280;54636;51.684;5.142;2023-04-23T02:02:01;100680.38;;;7.40;100.00
67840;BME280;54636;51.684;5.142;2023-04-23T02:04:28;100705.34;;;7.58;100.00
67840;BME280;54636;51.684;5.142;2023-04-23T02:06:53;100691.34;;;7.60;100.00
67840;BME280;54636;51.684;5.142;2023-04-23T02:09:19;100704.41;;;7.62;100.00
67840;BME280;54636;51.684;5.142;2023-04-23T02:11:45;100697.97;;;7.59;100.00
67840;BME280;54636;51.684;5.142;2023-04-23T02:14:10;100693.31;;;7.59;100.00
67840;BME280;54636;51.684;5.142;2023-04-23T02:16:36;100703.56;;;7.55;100.00
67840;BME280;54636;51.684;5.142;2023-04-23T02:19:02;100696.66;;;7.54;100.00
67840;BME280;54636;51.684;5.142;2023-04-23T02:21:27;100688.53;;;7.54;100.00
67840;BME280;54636;51.684;5.142;2023-04-23T02:23:53;100687.69;;;7.48;100.00
67840;BME280;54636;51.684;5.142;2023-04-23T02:26:19;100694.00;;;7.45;100.00
67840;BME280;54636;51.684;5.142;2023-04-23T02:28:47;100702.41;;;7.47;100.00
67840;BME280;54636;51.684;5.142;2023-04-23T02:31:12;100704.81;;;7.45;100.00
67840;BME280;54636;51.684;5.142;2023-04-23T02:33:39;100702.88;;;7.46;100.00
67840;BME280;54636;51.684;5.142;2023-04-23T02:36:05;100699.88;;;7.44;100.00
67840;BME280;54636;51.684;5.142;2023-04-23T02:38:31;100693.16;;;7.39;100.00
67840;BME280;54636;51.684;5.142;2023-04-23T02:40:56;100694.19;;;7.42;100.00
67840;BME280;54636;51.684;5.142;2023-04-23T02:43:22;100687.75;;;7.39;100.00
67840;BME280;54636;51.684;5.142;2023-04-23T02:45:47;100692.22;;;7.42;100.00
67840;BME280;54636;51.684;5.142;2023-04-23T02:48:12;100687.00;;;7.39;100.00
67840;BME280;54636;51.684;5.142;2023-04-23T02:50:38;100674.22;;;7.39;100.00
67840;BME280;54636;51.684;5.142;2023-04-23T02:53:04;100678.72;;;7.42;100.00
67840;BME280;54636;51.684;5.142;2023-04-23T02:55:29;100677.50;;;7.43;100.00
67840;BME280;54636;51.684;5.142;2023-04-23T02:57:56;100673.50;;;7.39;100.00
67840;BME280;54636;51.684;5.142;2023-04-23T03:00:23;100670.78;;;7.39;100.00
67840;BME280;54636;51.684;5.142;2023-04-23T03:02:48;100671.25;;;7.37;100.00
67840;BME280;54636;51.684;5.142;2023-04-23T03:05:14;100675.72;;;7.40;100.00
67840;BME280;54636;51.684;5.142;2023-04-23T03:07:39;100674.53;;;7.41;100.00
67840;BME280;54636;51.684;5.142;2023-04-23T03:10:05;100671.41;;;7.34;100.00
67840;BME280;54636;51.684;5.142;2023-04-23T03:12:31;100680.63;;;7.27;100.00
67840;BME280;54636;51.684;5.142;2023-04-23T03:14:56;100672.84;;;7.20;100.00
67840;BME280;54636;51.684;5.142;2023-04-23T03:17:21;100669.03;;;7.12;100.00
67840;BME280;54636;51.684;5.142;2023-04-23T03:19:47;100679.72;;;7.06;100.00
67840;BME280;54636;51.684;5.142;2023-04-23T03:22:13;100674.94;;;7.01;100.00
67840;BME280;54636;51.684;5.142;2023-04-23T03:24:38;100674.38;;;6.97;100.00
67840;BME280;54636;51.684;5.142;2023-04-23T03:27:04;100677.22;;;6.93;100.00
67840;BME280;54636;51.684;5.142;2023-04-23T03:29:29;100678.72;;;6.94;100.00
67840;BME280;54636;51.684;5.142;2023-04-23T03:31:55;100680.97;;;6.96;100.00
67840;BME280;54636;51.684;5.142;2023-04-23T03:34:20;100674.53;;;6.93;100.00
67840;BME280;54636;51.684;5.142;2023-04-23T03:36:46;100681.84;;;7.02;100.00
67840;BME280;54636;51.684;5.142;2023-04-23T03:39:13;100677.00;;;7.06;100.00
67840;BME280;54636;51.684;5.142;2023-04-23T03:41:39;100666.50;;;7.08;100.00
67840;BME280;54636;51.684;5.142;2023-04-23T03:44:04;100662.88;;;7.11;100.00
67840;BME280;54636;51.684;5.142;2023-04-23T03:46:30;100660.81;;;7.06;100.00
67840;BME280;54636;51.684;5.142;2023-04-23T03:48:55;100658.41;;;7.08;100.00
67840;BME280;54636;51.684;5.142;2023-04-23T03:51:21;100669.03;;;7.12;100.00
67840;BME280;54636;51.684;5.142;2023-04-23T03:53:46;100666.78;;;7.10;100.00
67840;BME280;54636;51.684;5.142;2023-04-23T03:56:12;100665.19;;;7.04;100.00
67840;BME280;54636;51.684;5.142;2023-04-23T03:58:37;100671.16;;;7.08;100.00
67840;BME280;54636;51.684;5.142;2023-04-23T04:01:03;100668.75;;;7.10;100.00
67840;BME280;54636;51.684;5.142;2023-04-23T04:03:28;100662.59;;;7.09;100.00
67840;BME280;54636;51.684;5.142;2023-04-23T04:05:53;100663.63;;;7.12;100.00
67840;BME280;54636;51.684;5.142;2023-04-23T04:08:19;100657.94;;;7.10;100.00
67840;BME280;54636;51.684;5.142;2023-04-23T04:10:44;100661.72;;;7.03;100.00
67840;BME280;54636;51.684;5.142;2023-04-23T04:13:10;100666.38;;;7.03;100.00
67840;BME280;54636;51.684;5.142;2023-04-23T04:15:36;100669.59;;;6.92;100.00
67840;BME280;54636;51.684;5.142;2023-04-23T04:18:01;100671.72;;;6.88;100.00
67840;BME280;54636;51.684;5.142;2023-04-23T04:20:27;100674.28;;;6.82;100.00
67840;BME280;54636;51.684;5.142;2023-04-23T04:22:55;100675.19;;;6.79;100.00
67840;BME280;54636;51.684;5.142;2023-04-23T04:25:20;100677.59;;;6.77;100.00
67840;BME280;54636;51.684;5.142;2023-04-23T04:27:47;100679.25;;;6.75;100.00
67840;BME280;54636;51.684;5.142;2023-04-23T04:30:13;100682.09;;;6.80;100.00
67840;BME280;54636;51.684;5.142;2023-04-23T04:32:38;100676.22;;;6.82;100.00
67840;BME280;54636;51.684;5.142;2023-04-23T04:35:05;100677.56;;;6.86;100.00
67840;BME280;54636;51.684;5.142;2023-04-23T04:37:31;100675.31;;;6.85;100.00
67840;BME280;54636;51.684;5.142;2023-04-23T04:39:57;100673.81;;;6.84;100.00
67840;BME280;54636;51.684;5.142;2023-04-23T04:42:23;100670.09;;;6.81;100.00
67840;BME280;54636;51.684;5.142;2023-04-23T04:44:49;100672.03;;;6.81;100.00
67840;BME280;54636;51.684;5.142;2023-04-23T04:47:15;100670.25;;;6.78;100.00
67840;BME280;54636;51.684;5.142;2023-04-23T04:49:41;100672.19;;;6.77;100.00
67840;BME280;54636;51.684;5.142;2023-04-23T04:52:06;100672.38;;;6.74;100.00
67840;BME280;54636;51.684;5.142;2023-04-23T04:54:32;100651.13;;;6.57;100.00
67840;BME280;54636;51.684;5.142;2023-04-23T04:56:57;100669.69;;;6.65;100.00
67840;BME280;54636;51.684;5.142;2023-04-23T04:59:23;100677.34;;;6.66;100.00
67840;BME280;54636;51.684;5.142;2023-04-23T05:01:48;100680.63;;;6.70;100.00
67840;BME280;54636;51.684;5.142;2023-04-23T05:04:13;100681.34;;;6.80;100.00
67840;BME280;54636;51.684;5.142;2023-04-23T05:06:39;100679.47;;;6.95;100.00
67840;BME280;54636;51.684;5.142;2023-04-23T05:09:04;100669.50;;;7.10;100.00
67840;BME280;54636;51.684;5.142;2023-04-23T05:11:30;100671.38;;;7.19;100.00
67840;BME280;54636;51.684;5.142;2023-04-23T05:13:55;100675.69;;;7.25;100.00
67840;BME280;54636;51.684;5.142;2023-04-23T05:16:21;100666.81;;;7.25;100.00
67840;BME280;54636;51.684;5.142;2023-04-23T05:18:46;100675.72;;;7.64;100.00
67840;BME280;54636;51.684;5.142;2023-04-23T05:21:12;100668.97;;;8.42;100.00
67840;BME280;54636;51.684;5.142;2023-04-23T05:23:38;100671.88;;;9.09;100.00
67840;BME280;54636;51.684;5.142;2023-04-23T05:26:03;100672.88;;;9.72;100.00
67840;BME280;54636;51.684;5.142;2023-04-23T05:28:29;100684.25;;;10.28;100.00
67840;BME280;54636;51.684;5.142;2023-04-23T05:30:55;100679.94;;;10.79;100.00
67840;BME280;54636;51.684;5.142;2023-04-23T05:33:20;100668.31;;;10.78;100.00
67840;BME280;54636;51.684;5.142;2023-04-23T05:35:46;100677.56;;;10.98;100.00
67840;BME280;54636;51.684;5.142;2023-04-23T05:38:11;100675.13;;;11.00;100.00
67840;BME280;54636;51.684;5.142;2023-04-23T05:40:37;100678.56;;;11.06;100.00
67840;BME280;54636;51.684;5.142;2023-04-23T05:43:03;100686.00;;;11.11;100.00
67840;BME280;54636;51.684;5.142;2023-04-23T05:45:28;100677.78;;;10.94;100.00
67840;BME280;54636;51.684;5.142;2023-04-23T05:47:54;100675.50;;;10.81;100.00
67840;BME280;54636;51.684;5.142;2023-04-23T05:50:22;100691.41;;;10.63;100.00
67840;BME280;54636;51.684;5.142;2023-04-23T05:52:47;100682.22;;;10.54;100.00
67840;BME280;54636;51.684;5.142;2023-04-23T05:55:13;100688.13;;;10.53;100.00
67840;BME280;54636;51.684;5.142;2023-04-23T05:57:42;100685.81;;;10.40;100.00
67840;BME280;54636;51.684;5.142;2023-04-23T06:00:08;100675.47;;;10.44;100.00
67840;BME280;54636;51.684;5.142;2023-04-23T06:02:34;100684.63;;;10.47;100.00
67840;BME280;54636;51.684;5.142;2023-04-23T06:04:59;100679.38;;;10.69;100.00
67840;BME280;54636;51.684;5.142;2023-04-23T06:07:25;100675.09;;;10.94;100.00
67840;BME280;54636;51.684;5.142;2023-04-23T06:09:50;100673.44;;;11.19;100.00
67840;BME280;54636;51.684;5.142;2023-04-23T06:12:16;100673.28;;;11.34;100.00
67840;BME280;54636;51.684;5.142;2023-04-23T06:14:42;100671.88;;;11.55;100.00
67840;BME280;54636;51.684;5.142;2023-04-23T06:17:07;100659.34;;;11.91;100.00
67840;BME280;54636;51.684;5.142;2023-04-23T06:19:33;100662.09;;;12.02;100.00
67840;BME280;54636;51.684;5.142;2023-04-23T06:21:58;100646.00;;;11.99;100.00
67840;BME280;54636;51.684;5.142;2023-04-23T06:24:23;100662.84;;;12.19;100.00
67840;BME280;54636;51.684;5.142;2023-04-23T06:26:49;100655.16;;;12.29;100.00
67840;BME280;54636;51.684;5.142;2023-04-23T06:29:14;100651.66;;;12.68;100.00
67840;BME280;54636;51.684;5.142;2023-04-23T06:31:40;100656.09;;;13.45;100.00
67840;BME280;54636;51.684;5.142;2023-04-23T06:34:06;100651.50;;;14.06;100.00
67840;BME280;54636;51.684;5.142;2023-04-23T06:36:31;100654.66;;;14.45;99.97
67840;BME280;54636;51.684;5.142;2023-04-23T06:38:57;100652.28;;;14.61;99.24
67840;BME280;54636;51.684;5.142;2023-04-23T06:41:22;100632.00;;;14.50;98.22
67840;BME280;54636;51.684;5.142;2023-04-23T06:43:48;100651.84;;;15.00;95.63
67840;BME280;54636;51.684;5.142;2023-04-23T06:46:13;100648.34;;;15.24;93.20
67840;BME280;54636;51.684;5.142;2023-04-23T06:48:39;100641.78;;;15.51;92.30
67840;BME280;54636;51.684;5.142;2023-04-23T06:51:05;100654.56;;;15.80;93.24
67840;BME280;54636;51.684;5.142;2023-04-23T06:53:30;100642.19;;;15.93;90.36
67840;BME280;54636;51.684;5.142;2023-04-23T06:55:56;100645.38;;;15.78;88.80
67840;BME280;54636;51.684;5.142;2023-04-23T06:58:21;100647.94;;;15.57;90.69
67840;BME280;54636;51.684;5.142;2023-04-23T07:00:52;100645.69;;;15.18;90.94
67840;BME280;54636;51.684;5.142;2023-04-23T07:03:18;100639.94;;;14.78;94.47
67840;BME280;54636;51.684;5.142;2023-04-23T07:05:43;100644.41;;;14.52;96.06
67840;BME280;54636;51.684;5.142;2023-04-23T07:08:08;100633.53;;;14.16;97.36
67840;BME280;54636;51.684;5.142;2023-04-23T07:10:34;100634.97;;;13.93;100.00
67840;BME280;54636;51.684;5.142;2023-04-23T07:12:59;100641.47;;;13.84;100.00
67840;BME280;54636;51.684;5.142;2023-04-23T07:15:25;100637.94;;;13.59;100.00
67840;BME280;54636;51.684;5.142;2023-04-23T07:17:50;100634.28;;;13.45;100.00
67840;BME280;54636;51.684;5.142;2023-04-23T07:20:16;100627.63;;;13.35;100.00
67840;BME280;54636;51.684;5.142;2023-04-23T07:22:41;100607.13;;;13.17;100.00
67840;BME280;54636;51.684;5.142;2023-04-23T07:25:07;100625.44;;;13.28;100.00
67840;BME280;54636;51.684;5.142;2023-04-23T07:27:33;100616.00;;;13.29;100.00
67840;BME280;54636;51.684;5.142;2023-04-23T07:29:58;100618.47;;;13.33;100.00
67840;BME280;54636;51.684;5.142;2023-04-23T07:32:25;100625.88;;;13.38;100.00
67840;BME280;54636;51.684;5.142;2023-04-23T07:34:53;100616.69;;;13.41;100.00
67840;BME280;54636;51.684;5.142;2023-04-23T07:37:18;100623.84;;;13.49;100.00
67840;BME280;54636;51.684;5.142;2023-04-23T07:39:45;100625.81;;;13.55;100.00
67840;BME280;54636;51.684;5.142;2023-04-23T07:42:12;100623.50;;;13.64;100.00
67840;BME280;54636;51.684;5.142;2023-04-23T07:44:37;100617.22;;;13.75;100.00
67840;BME280;54636;51.684;5.142;2023-04-23T07:47:03;100612.19;;;13.84;100.00
67840;BME280;54636;51.684;5.142;2023-04-23T07:49:28;100614.41;;;13.86;100.00
67840;BME280;54636;51.684;5.142;2023-04-23T07:51:53;100618.56;;;13.93;100.00
67840;BME280;54636;51.684;5.142;2023-04-23T07:54:19;100615.56;;;13.96;100.00
67840;BME280;54636;51.684;5.142;2023-04-23T07:56:44;100607.56;;;14.04;98.40
67840;BME280;54636;51.684;5.142;2023-04-23T07:59:10;100606.69;;;14.20;100.00
67840;BME280;54636;51.684;5.142;2023-04-23T08:01:35;100609.75;;;14.35;100.00
67840;BME280;54636;51.684;5.142;2023-04-23T08:04:01;100609.97;;;14.43;97.45
67840;BME280;54636;51.684;5.142;2023-04-23T08:06:27;100601.94;;;14.50;100.00
67840;BME280;54636;51.684;5.142;2023-04-23T08:08:54;100611.75;;;14.65;96.17
67840;BME280;54636;51.684;5.142;2023-04-23T08:11:20;100612.66;;;14.73;96.69
67840;BME280;54636;51.684;5.142;2023-04-23T08:13:46;100593.22;;;14.76;94.58
67840;BME280;54636;51.684;5.142;2023-04-23T08:16:11;100600.63;;;14.81;92.92
67840;BME280;54636;51.684;5.142;2023-04-23T08:18:37;100596.34;;;14.86;93.77
67840;BME280;54636;51.684;5.142;2023-04-23T08:21:02;100597.44;;;14.96;93.40
67840;BME280;54636;51.684;5.142;2023-04-23T08:23:28;100594.13;;;15.03;93.32
67840;BME280;54636;51.684;5.142;2023-04-23T08:25:53;100598.66;;;15.20;93.61
67840;BME280;54636;51.684;5.142;2023-04-23T08:28:18;100599.91;;;15.37;89.70
67840;BME280;54636;51.684;5.142;2023-04-23T08:30:45;100595.09;;;15.43;87.61
67840;BME280;54636;51.684;5.142;2023-04-23T08:33:10;100593.09;;;15.44;89.40
67840;BME280;54636;51.684;5.142;2023-04-23T08:35:36;100589.47;;;15.55;89.46
67840;BME280;54636;51.684;5.142;2023-04-23T08:38:02;100598.94;;;15.54;87.85
67840;BME280;54636;51.684;5.142;2023-04-23T08:40:30;100593.28;;;15.65;86.43
67840;BME280;54636;51.684;5.142;2023-04-23T08:45:21;100596.44;;;15.88;88.30
67840;BME280;54636;51.684;5.142;2023-04-23T08:47:47;100593.09;;;15.95;84.65
67840;BME280;54636;51.684;5.142;2023-04-23T08:50:16;100586.81;;;16.13;81.67
67840;BME280;54636;51.684;5.142;2023-04-23T08:53:03;100593.03;;;16.27;84.35
67840;BME280;54636;51.684;5.142;2023-04-23T08:55:27;100591.56;;;16.39;85.43
67840;BME280;54636;51.684;5.142;2023-04-23T08:57:53;100585.88;;;16.50;82.43
67840;BME280;54636;51.684;5.142;2023-04-23T09:00:19;100586.84;;;16.53;81.99
67840;BME280;54636;51.684;5.142;2023-04-23T09:02:47;100588.41;;;16.61;81.43
67840;BME280;54636;51.684;5.142;2023-04-23T09:05:13;100588.44;;;16.74;83.02
67840;BME280;54636;51.684;5.142;2023-04-23T09:07:39;100589.28;;;16.83;77.75
67840;BME280;54636;51.684;5.142;2023-04-23T09:10:06;100594.09;;;17.03;78.75
67840;BME280;54636;51.684;5.142;2023-04-23T09:12:36;100595.13;;;17.13;77.56
67840;BME280;54636;51.684;5.142;2023-04-23T09:15:02;100595.69;;;16.98;76.40
67840;BME280;54636;51.684;5.142;2023-04-23T09:17:34;100590.59;;;17.02;76.51
67840;BME280;54636;51.684;5.142;2023-04-23T09:20:01;100582.66;;;17.12;76.65
67840;BME280;54636;51.684;5.142;2023-04-23T09:22:56;100584.13;;;17.26;76.05
67840;BME280;54636;51.684;5.142;2023-04-23T09:25:23;100587.59;;;17.27;73.04
67840;BME280;54636;51.684;5.142;2023-04-23T09:27:49;100582.06;;;17.40;71.52
67840;BME280;54636;51.684;5.142;2023-04-23T09:30:16;100573.78;;;17.53;67.67
67840;BME280;54636;51.684;5.142;2023-04-23T09:32:44;100567.69;;;17.68;70.21
67840;BME280;54636;51.684;5.142;2023-04-23T09:35:15;100574.66;;;17.90;68.60
67840;BME280;54636;51.684;5.142;2023-04-23T09:37:46;100570.63;;;18.12;69.18
67840;BME280;54636;51.684;5.142;2023-04-23T09:40:17;100577.84;;;18.22;68.97
67840;BME280;54636;51.684;5.142;2023-04-23T09:42:50;100571.75;;;18.44;69.42
67840;BME280;54636;51.684;5.142;2023-04-23T09:45:20;100571.69;;;18.37;68.11
67840;BME280;54636;51.684;5.142;2023-04-23T09:47:54;100569.88;;;18.39;66.09
67840;BME280;54636;51.684;5.142;2023-04-23T09:50:37;100559.03;;;18.34;68.00
67840;BME280;54636;51.684;5.142;2023-04-23T09:53:04;100559.03;;;18.34;67.41
67840;BME280;54636;51.684;5.142;2023-04-23T09:55:35;100568.22;;;18.36;64.73
67840;BME280;54636;51.684;5.142;2023-04-23T09:58:03;100555.59;;;18.41;64.18
67840;BME280;54636;51.684;5.142;2023-04-23T10:00:37;100552.66;;;18.39;64.51
67840;BME280;54636;51.684;5.142;2023-04-23T10:03:03;100552.44;;;18.37;64.33
67840;BME280;54636;51.684;5.142;2023-04-23T10:05:31;100552.25;;;18.35;66.68
67840;BME280;54636;51.684;5.142;2023-04-23T10:07:56;100551.38;;;18.40;65.51
67840;BME280;54636;51.684;5.142;2023-04-23T10:10:22;100546.09;;;18.50;64.39
67840;BME280;54636;51.684;5.142;2023-04-23T10:12:48;100552.38;;;18.58;64.58
67840;BME280;54636;51.684;5.142;2023-04-23T10:15:15;100541.25;;;18.63;62.59
67840;BME280;54636;51.684;5.142;2023-04-23T10:17:41;100538.38;;;18.77;61.63
67840;BME280;54636;51.684;5.142;2023-04-23T10:20:07;100541.59;;;19.03;62.11
67840;BME280;54636;51.684;5.142;2023-04-23T10:22:34;100540.56;;;19.37;63.14
67840;BME280;54636;51.684;5.142;2023-04-23T10:25:03;100532.69;;;19.41;58.13
67840;BME280;54636;51.684;5.142;2023-04-23T10:27:30;100533.22;;;19.32;58.54
67840;BME280;54636;51.684;5.142;2023-04-23T10:29:56;100527.31;;;19.28;57.69
67840;BME280;54636;51.684;5.142;2023-04-23T10:32:22;100522.00;;;19.22;56.94
67840;BME280;54636;51.684;5.142;2023-04-23T10:34:48;100525.31;;;19.28;57.37
67840;BME280;54636;51.684;5.142;2023-04-23T10:37:15;100518.34;;;19.27;56.76
67840;BME280;54636;51.684;5.142;2023-04-23T10:39:43;100522.91;;;19.25;56.32
67840;BME280;54636;51.684;5.142;2023-04-23T10:42:10;100502.34;;;19.18;58.31
67840;BME280;54636;51.684;5.142;2023-04-23T10:44:38;100514.63;;;19.17;58.50
67840;BME280;54636;51.684;5.142;2023-04-23T10:47:05;100510.06;;;19.20;57.62
67840;BME280;54636;51.684;5.142;2023-04-23T10:49:32;100514.28;;;19.28;57.33
67840;BME280;54636;51.684;5.142;2023-04-23T10:52:03;100511.53;;;19.28;58.51
67840;BME280;54636;51.684;5.142;2023-04-23T10:54:32;100505.31;;;19.35;57.55
67840;BME280;54636;51.684;5.142;2023-04-23T10:59:26;100497.81;;;19.59;54.74
67840;BME280;54636;51.684;5.142;2023-04-23T11:01:55;100495.97;;;19.61;56.27
67840;BME280;54636;51.684;5.142;2023-04-23T11:06:53;100497.63;;;19.72;56.11
67840;BME280;54636;51.684;5.142;2023-04-23T11:09:47;100494.31;;;19.66;56.93
67840;BME280;54636;51.684;5.142;2023-04-23T11:14:54;100477.03;;;19.27;54.94
67840;BME280;54636;51.684;5.142;2023-04-23T11:20:19;100466.72;;;19.05;57.85
67840;BME280;54636;51.684;5.142;2023-04-23T11:22:47;100468.03;;;19.19;57.37
67840;BME280;54636;51.684;5.142;2023-04-23T11:25:32;100459.97;;;19.29;57.96
67840;BME280;54636;51.684;5.142;2023-04-23T11:27:59;100457.56;;;19.48;54.44
67840;BME280;54636;51.684;5.142;2023-04-23T11:30:29;100452.81;;;19.56;54.45
67840;BME280;54636;51.684;5.142;2023-04-23T11:32:56;100442.34;;;19.62;53.82
67840;BME280;54636;51.684;5.142;2023-04-23T11:35:23;100441.41;;;19.60;53.96
67840;BME280;54636;51.684;5.142;2023-04-23T11:37:52;100430.03;;;19.40;53.90
67840;BME280;54636;51.684;5.142;2023-04-23T11:40:18;100429.31;;;19.32;54.12
67840;BME280;54636;51.684;5.142;2023-04-23T11:42:51;100431.31;;;19.24;56.65
67840;BME280;54636;51.684;5.142;2023-04-23T11:47:45;100437.00;;;19.41;56.46
67840;BME280;54636;51.684;5.142;2023-04-23T11:50:22;100431.31;;;19.70;56.14
67840;BME280;54636;51.684;5.142;2023-04-23T11:52:48;100421.00;;;19.86;54.55
67840;BME280;54636;51.684;5.142;2023-04-23T11:55:14;100426.63;;;20.11;55.00
67840;BME280;54636;51.684;5.142;2023-04-23T11:57:45;100417.50;;;20.33;54.23
67840;BME280;54636;51.684;5.142;2023-04-23T12:00:15;100411.78;;;20.46;52.81
67840;BME280;54636;51.684;5.142;2023-04-23T12:03:00;100406.44;;;20.48;53.96
67840;BME280;54636;51.684;5.142;2023-04-23T12:05:38;100397.25;;;20.46;54.21
67840;BME280;54636;51.684;5.142;2023-04-23T12:08:15;100400.22;;;20.32;54.52
67840;BME280;54636;51.684;5.142;2023-04-23T12:15:49;100386.66;;;20.27;53.16
67840;BME280;54636;51.684;5.142;2023-04-23T12:18:16;100371.44;;;20.18;51.79
67840;BME280;54636;51.684;5.142;2023-04-23T12:20:42;100378.13;;;20.08;51.32
67840;BME280;54636;51.684;5.142;2023-04-23T12:23:07;100369.66;;;20.05;52.07
67840;BME280;54636;51.684;5.142;2023-04-23T12:25:34;100364.53;;;20.02;53.06
67840;BME280;54636;51.684;5.142;2023-04-23T12:28:00;100357.31;;;20.14;53.92
67840;BME280;54636;51.684;5.142;2023-04-23T12:30:29;100356.84;;;20.33;53.34
67840;BME280;54636;51.684;5.142;2023-04-23T12:33:01;100367.13;;;20.32;52.63
67840;BME280;54636;51.684;5.142;2023-04-23T12:35:42;100352.78;;;20.01;53.28
67840;BME280;54636;51.684;5.142;2023-04-23T12:38:22;100345.31;;;19.79;53.42
67840;BME280;54636;51.684;5.142;2023-04-23T12:40:49;100348.84;;;19.64;52.94
67840;BME280;54636;51.684;5.142;2023-04-23T12:43:15;100340.81;;;19.44;53.92
67840;BME280;54636;51.684;5.142;2023-04-23T12:45:40;100350.91;;;19.33;52.60
67840;BME280;54636;51.684;5.142;2023-04-23T12:48:06;100336.97;;;19.24;51.28
67840;BME280;54636;51.684;5.142;2023-04-23T12:50:31;100326.31;;;19.20;51.67
67840;BME280;54636;51.684;5.142;2023-04-23T12:52:57;100331.09;;;19.12;53.14
67840;BME280;54636;51.684;5.142;2023-04-23T12:55:22;100331.44;;;19.31;51.39
67840;BME280;54636;51.684;5.142;2023-04-23T12:57:47;100318.06;;;19.28;51.81
67840;BME280;54636;51.684;5.142;2023-04-23T13:00:13;100316.56;;;19.42;51.06
67840;BME280;54636;51.684;5.142;2023-04-23T13:02:39;100303.47;;;19.50;51.27
67840;BME280;54636;51.684;5.142;2023-04-23T13:05:04;100311.53;;;19.71;50.96